sensor_id;sensor_type;location;lat;lon;timestamp;temperature;humidity
1455;DHT22;721;48.168;12.818;2022-10-16T00:01:41;14.80;52.00
1455;DHT22;721;48.168;12.818;2022-10-16T00:04:08;14.80;54.40
1455;DHT22;721;48.168;12.818;2022-10-16T00:06:36;14.90;52.20
1455;DHT22;721;48.168;12.818;2022-10-16T00:09:03;15.00;51.30
1455;DHT22;721;48.168;12.818;2022-10-16T00:11:31;15.10;49.00
1455;DHT22;721;48.168;12.818;2022-10-16T00:14:02;15.00;50.40
1455;DHT22;721;48.168;12.818;2022-10-16T00:16:30;14.90;51.60
1455;DHT22;721;48.168;12.818;2022-10-16T00:18:58;15.10;50.00
1455;DHT22;721;48.168;12.818;2022-10-16T00:21:27;15.20;47.70
1455;DHT22;721;48.168;12.818;2022-10-16T00:23:59;15.20;48.10
1455;DHT22;721;48.168;12.818;2022-10-16T00:26:28;15.00;51.60
1455;DHT22;721;48.168;12.818;2022-10-16T00:28:55;15.10;50.00
1455;DHT22;721;48.168;12.818;2022-10-16T00:31:24;15.20;49.70
1455;DHT22;721;48.168;12.818;2022-10-16T00:33:53;15.30;48.40
1455;DHT22;721;48.168;12.818;2022-10-16T00:36:24;15.30;48.10
1455;DHT22;721;48.168;12.818;2022-10-16T00:38:52;15.10;51.30
1455;DHT22;721;48.168;12.818;2022-10-16T00:41:23;15.20;50.10
1455;DHT22;721;48.168;12.818;2022-10-16T00:43:52;15.10;52.90
1455;DHT22;721;48.168;12.818;2022-10-16T00:46:22;15.30;50.20
1455;DHT22;721;48.168;12.818;2022-10-16T00:48:54;15.40;49.50
1455;DHT22;721;48.168;12.818;2022-10-16T00:51:25;15.30;49.70
1455;DHT22;721;48.168;12.818;2022-10-16T00:53:55;15.30;48.50
1455;DHT22;721;48.168;12.818;2022-10-16T00:56:22;15.20;49.20
1455;DHT22;721;48.168;12.818;2022-10-16T00:58:52;15.10;50.00
1455;DHT22;721;48.168;12.818;2022-10-16T01:01:19;15.20;50.60
1455;DHT22;721;48.168;12.818;2022-10-16T01:03:46;15.20;47.70
1455;DHT22;721;48.168;12.818;2022-10-16T01:06:27;15.00;48.90
1455;DHT22;721;48.168;12.818;2022-10-16T01:09:17;15.00;49.10
1455;DHT22;721;48.168;12.818;2022-10-16T01:11:57;14.80;50.50
1455;DHT22;721;48.168;12.818;2022-10-16T01:14:38;14.70;49.60
1455;DHT22;721;48.168;12.818;2022-10-16T01:19:58;14.50;54.10
1455;DHT22;721;48.168;12.818;2022-10-16T01:22:37;14.60;53.50
1455;DHT22;721;48.168;12.818;2022-10-16T01:25:09;14.70;53.50
1455;DHT22;721;48.168;12.818;2022-10-16T01:27:40;14.60;52.00
1455;DHT22;721;48.168;12.818;2022-10-16T01:32:39;14.80;49.70
1455;DHT22;721;48.168;12.818;2022-10-16T01:35:11;14.90;46.70
1455;DHT22;721;48.168;12.818;2022-10-16T01:37:47;14.80;46.30
1455;DHT22;721;48.168;12.818;2022-10-16T01:40:17;14.60;48.90
1455;DHT22;721;48.168;12.818;2022-10-16T01:42:50;14.50;51.00
1455;DHT22;721;48.168;12.818;2022-10-16T01:45:20;14.40;52.70
1455;DHT22;721;48.168;12.818;2022-10-16T01:50:48;14.40;50.60
1455;DHT22;721;48.168;12.818;2022-10-16T01:53:18;14.60;48.00
1455;DHT22;721;48.168;12.818;2022-10-16T01:55:46;14.50;48.10
1455;DHT22;721;48.168;12.818;2022-10-16T01:58:19;14.30;51.30
1455;DHT22;721;48.168;12.818;2022-10-16T02:00:56;14.30;50.60
1455;DHT22;721;48.168;12.818;2022-10-16T02:03:23;14.30;49.20
1455;DHT22;721;48.168;12.818;2022-10-16T02:05:52;14.30;50.70
1455;DHT22;721;48.168;12.818;2022-10-16T02:08:21;14.30;50.10
1455;DHT22;721;48.168;12.818;2022-10-16T02:10:49;14.40;49.30
1455;DHT22;721;48.168;12.818;2022-10-16T02:13:22;14.40;49.90
1455;DHT22;721;48.168;12.818;2022-10-16T02:15:50;14.40;47.20
1455;DHT22;721;48.168;12.818;2022-10-16T02:18:18;14.50;45.10
1455;DHT22;721;48.168;12.818;2022-10-16T02:20:55;14.30;47.90
1455;DHT22;721;48.168;12.818;2022-10-16T02:23:30;14.40;49.30
1455;DHT22;721;48.168;12.818;2022-10-16T02:26:05;14.20;50.10
1455;DHT22;721;48.168;12.818;2022-10-16T02:28:40;14.30;48.60
1455;DHT22;721;48.168;12.818;2022-10-16T02:31:11;14.30;48.80
1455;DHT22;721;48.168;12.818;2022-10-16T02:33:42;14.30;46.50
1455;DHT22;721;48.168;12.818;2022-10-16T02:36:10;14.30;48.00
1455;DHT22;721;48.168;12.818;2022-10-16T02:38:43;14.50;47.50
1455;DHT22;721;48.168;12.818;2022-10-16T02:41:12;14.50;43.80
1455;DHT22;721;48.168;12.818;2022-10-16T02:43:43;14.60;42.10
1455;DHT22;721;48.168;12.818;2022-10-16T02:46:10;14.40;44.80
1455;DHT22;721;48.168;12.818;2022-10-16T02:48:37;14.30;46.40
1455;DHT22;721;48.168;12.818;2022-10-16T02:51:04;14.40;46.50
1455;DHT22;721;48.168;12.818;2022-10-16T02:53:31;14.30;45.70
1455;DHT22;721;48.168;12.818;2022-10-16T02:55:58;14.40;45.60
1455;DHT22;721;48.168;12.818;2022-10-16T02:58:25;14.50;44.00
1455;DHT22;721;48.168;12.818;2022-10-16T03:01:00;14.50;44.60
1455;DHT22;721;48.168;12.818;2022-10-16T03:03:28;14.40;44.70
1455;DHT22;721;48.168;12.818;2022-10-16T03:05:55;14.60;43.60
1455;DHT22;721;48.168;12.818;2022-10-16T03:08:22;14.30;47.30
1455;DHT22;721;48.168;12.818;2022-10-16T03:10:51;14.40;46.40
1455;DHT22;721;48.168;12.818;2022-10-16T03:13:18;14.40;47.50
1455;DHT22;721;48.168;12.818;2022-10-16T03:15:47;14.40;48.00
1455;DHT22;721;48.168;12.818;2022-10-16T03:18:15;14.30;49.20
1455;DHT22;721;48.168;12.818;2022-10-16T03:20:43;14.20;50.90
1455;DHT22;721;48.168;12.818;2022-10-16T03:23:09;14.10;50.60
1455;DHT22;721;48.168;12.818;2022-10-16T03:25:36;14.10;53.70
1455;DHT22;721;48.168;12.818;2022-10-16T03:28:06;14.10;51.80
1455;DHT22;721;48.168;12.818;2022-10-16T03:30:33;14.20;52.10
1455;DHT22;721;48.168;12.818;2022-10-16T03:33:00;14.30;50.00
1455;DHT22;721;48.168;12.818;2022-10-16T03:35:31;14.20;51.30
1455;DHT22;721;48.168;12.818;2022-10-16T03:37:58;14.30;48.80
1455;DHT22;721;48.168;12.818;2022-10-16T03:40:25;14.40;45.90
1455;DHT22;721;48.168;12.818;2022-10-16T03:42:55;14.40;46.60
1455;DHT22;721;48.168;12.818;2022-10-16T03:45:25;14.20;49.10
1455;DHT22;721;48.168;12.818;2022-10-16T03:47:52;14.30;47.80
1455;DHT22;721;48.168;12.818;2022-10-16T03:50:22;14.30;47.20
1455;DHT22;721;48.168;12.818;2022-10-16T03:52:50;14.30;46.10
1455;DHT22;721;48.168;12.818;2022-10-16T03:55:20;14.20;46.50
1455;DHT22;721;48.168;12.818;2022-10-16T03:57:52;14.00;48.90
1455;DHT22;721;48.168;12.818;2022-10-16T04:00:19;14.10;48.60
1455;DHT22;721;48.168;12.818;2022-10-16T04:02:49;14.10;47.50
1455;DHT22;721;48.168;12.818;2022-10-16T04:05:15;14.10;45.10
1455;DHT22;721;48.168;12.818;2022-10-16T04:07:42;14.00;45.70
1455;DHT22;721;48.168;12.818;2022-10-16T04:10:11;13.90;49.30
1455;DHT22;721;48.168;12.818;2022-10-16T04:12:37;13.80;49.20
1455;DHT22;721;48.168;12.818;2022-10-16T04:15:05;13.90;50.20
1455;DHT22;721;48.168;12.818;2022-10-16T04:17:32;14.00;49.00
1455;DHT22;721;48.168;12.818;2022-10-16T04:19:59;13.90;46.10
1455;DHT22;721;48.168;12.818;2022-10-16T04:22:25;13.90;46.50
1455;DHT22;721;48.168;12.818;2022-10-16T04:24:52;13.70;48.30
1455;DHT22;721;48.168;12.818;2022-10-16T04:27:23;13.60;49.80
1455;DHT22;721;48.168;12.818;2022-10-16T04:29:50;13.70;47.60
1455;DHT22;721;48.168;12.818;2022-10-16T04:32:16;13.80;43.90
1455;DHT22;721;48.168;12.818;2022-10-16T04:34:46;13.90;43.40
1455;DHT22;721;48.168;12.818;2022-10-16T04:37:13;13.80;45.40
1455;DHT22;721;48.168;12.818;2022-10-16T04:39:40;13.60;49.20
1455;DHT22;721;48.168;12.818;2022-10-16T04:42:06;13.60;46.20
1455;DHT22;721;48.168;12.818;2022-10-16T04:44:35;13.60;46.60
1455;DHT22;721;48.168;12.818;2022-10-16T04:47:01;13.60;45.70
1455;DHT22;721;48.168;12.818;2022-10-16T04:49:30;13.70;42.20
1455;DHT22;721;48.168;12.818;2022-10-16T04:51:57;13.60;44.10
1455;DHT22;721;48.168;12.818;2022-10-16T04:54:24;13.40;46.60
1455;DHT22;721;48.168;12.818;2022-10-16T04:56:51;13.20;48.70
1455;DHT22;721;48.168;12.818;2022-10-16T04:59:18;12.90;52.60
1455;DHT22;721;48.168;12.818;2022-10-16T05:01:49;12.80;54.10
1455;DHT22;721;48.168;12.818;2022-10-16T05:04:16;12.70;55.60
1455;DHT22;721;48.168;12.818;2022-10-16T05:06:43;12.60;55.70
1455;DHT22;721;48.168;12.818;2022-10-16T05:09:10;12.50;57.30
1455;DHT22;721;48.168;12.818;2022-10-16T05:11:37;12.50;56.90
1455;DHT22;721;48.168;12.818;2022-10-16T05:14:03;12.60;55.70
1455;DHT22;721;48.168;12.818;2022-10-16T05:16:30;12.70;58.30
1455;DHT22;721;48.168;12.818;2022-10-16T05:18:59;12.70;55.80
1455;DHT22;721;48.168;12.818;2022-10-16T05:21:26;12.80;52.50
1455;DHT22;721;48.168;12.818;2022-10-16T05:23:53;12.70;54.40
1455;DHT22;721;48.168;12.818;2022-10-16T05:26:20;12.70;55.50
1455;DHT22;721;48.168;12.818;2022-10-16T05:28:49;12.90;52.20
1455;DHT22;721;48.168;12.818;2022-10-16T05:31:16;12.80;51.10
1455;DHT22;721;48.168;12.818;2022-10-16T05:33:45;13.00;50.60
1455;DHT22;721;48.168;12.818;2022-10-16T05:36:13;13.10;47.20
1455;DHT22;721;48.168;12.818;2022-10-16T05:38:40;13.20;46.70
1455;DHT22;721;48.168;12.818;2022-10-16T05:41:07;13.20;46.80
1455;DHT22;721;48.168;12.818;2022-10-16T05:43:34;13.30;46.60
1455;DHT22;721;48.168;12.818;2022-10-16T05:46:03;13.40;47.30
1455;DHT22;721;48.168;12.818;2022-10-16T05:48:32;13.50;45.30
1455;DHT22;721;48.168;12.818;2022-10-16T05:51:01;13.50;42.60
1455;DHT22;721;48.168;12.818;2022-10-16T05:53:32;13.60;41.80
1455;DHT22;721;48.168;12.818;2022-10-16T05:55:59;13.50;43.90
1455;DHT22;721;48.168;12.818;2022-10-16T05:58:30;13.50;44.80
1455;DHT22;721;48.168;12.818;2022-10-16T06:00:59;13.50;44.70
1455;DHT22;721;48.168;12.818;2022-10-16T06:03:26;13.60;45.60
1455;DHT22;721;48.168;12.818;2022-10-16T06:05:56;13.70;44.40
1455;DHT22;721;48.168;12.818;2022-10-16T06:08:23;13.70;46.80
1455;DHT22;721;48.168;12.818;2022-10-16T06:11:01;13.60;47.50
1455;DHT22;721;48.168;12.818;2022-10-16T06:13:28;13.60;48.50
1455;DHT22;721;48.168;12.818;2022-10-16T06:15:57;13.70;50.40
1455;DHT22;721;48.168;12.818;2022-10-16T06:18:24;13.90;49.40
1455;DHT22;721;48.168;12.818;2022-10-16T06:20:51;14.10;49.10
1455;DHT22;721;48.168;12.818;2022-10-16T06:23:18;14.10;51.30
1455;DHT22;721;48.168;12.818;2022-10-16T06:25:45;14.00;53.40
1455;DHT22;721;48.168;12.818;2022-10-16T06:28:15;14.00;52.90
1455;DHT22;721;48.168;12.818;2022-10-16T06:30:42;14.20;52.60
1455;DHT22;721;48.168;12.818;2022-10-16T06:33:09;14.20;55.10
1455;DHT22;721;48.168;12.818;2022-10-16T06:35:36;14.40;55.70
1455;DHT22;721;48.168;12.818;2022-10-16T06:38:03;14.50;52.30
1455;DHT22;721;48.168;12.818;2022-10-16T06:40:30;14.70;51.30
1455;DHT22;721;48.168;12.818;2022-10-16T06:42:57;14.80;49.30
1455;DHT22;721;48.168;12.818;2022-10-16T06:45:25;14.90;46.40
1455;DHT22;721;48.168;12.818;2022-10-16T06:47:53;15.00;44.90
1455;DHT22;721;48.168;12.818;2022-10-16T06:50:20;15.10;43.90
1455;DHT22;721;48.168;12.818;2022-10-16T06:52:47;15.10;44.70
1455;DHT22;721;48.168;12.818;2022-10-16T06:55:14;15.10;42.20
1455;DHT22;721;48.168;12.818;2022-10-16T06:57:42;15.20;40.40
1455;DHT22;721;48.168;12.818;2022-10-16T07:00:10;15.20;41.50
1455;DHT22;721;48.168;12.818;2022-10-16T07:02:38;15.30;39.40
1455;DHT22;721;48.168;12.818;2022-10-16T07:05:05;15.40;40.50
1455;DHT22;721;48.168;12.818;2022-10-16T07:07:32;15.40;39.30
1455;DHT22;721;48.168;12.818;2022-10-16T07:09:59;15.40;37.60
1455;DHT22;721;48.168;12.818;2022-10-16T07:12:26;15.50;37.60
1455;DHT22;721;48.168;12.818;2022-10-16T07:14:56;15.70;36.00
1455;DHT22;721;48.168;12.818;2022-10-16T07:17:22;15.70;35.90
1455;DHT22;721;48.168;12.818;2022-10-16T07:19:51;15.70;34.00
1455;DHT22;721;48.168;12.818;2022-10-16T07:22:18;15.90;34.60
1455;DHT22;721;48.168;12.818;2022-10-16T07:24:45;16.00;32.60
1455;DHT22;721;48.168;12.818;2022-10-16T07:27:13;16.10;31.30
1455;DHT22;721;48.168;12.818;2022-10-16T07:29:41;16.10;31.30
1455;DHT22;721;48.168;12.818;2022-10-16T07:32:07;16.10;30.60
1455;DHT22;721;48.168;12.818;2022-10-16T07:34:36;16.00;29.90
1455;DHT22;721;48.168;12.818;2022-10-16T07:37:05;16.20;29.60
1455;DHT22;721;48.168;12.818;2022-10-16T07:39:31;16.30;30.80
1455;DHT22;721;48.168;12.818;2022-10-16T07:41:59;16.30;29.90
1455;DHT22;721;48.168;12.818;2022-10-16T07:44:25;16.40;28.50
1455;DHT22;721;48.168;12.818;2022-10-16T07:46:52;16.50;29.90
1455;DHT22;721;48.168;12.818;2022-10-16T07:49:19;16.60;27.90
1455;DHT22;721;48.168;12.818;2022-10-16T07:51:51;16.70;27.30
1455;DHT22;721;48.168;12.818;2022-10-16T07:54:20;16.80;26.30
1455;DHT22;721;48.168;12.818;2022-10-16T07:56:49;16.90;25.40
1455;DHT22;721;48.168;12.818;2022-10-16T07:59:16;17.00;25.60
1455;DHT22;721;48.168;12.818;2022-10-16T08:01:49;17.10;23.90
1455;DHT22;721;48.168;12.818;2022-10-16T08:04:16;17.00;25.00
1455;DHT22;721;48.168;12.818;2022-10-16T08:06:42;17.10;23.90
1455;DHT22;721;48.168;12.818;2022-10-16T08:09:09;17.10;25.30
1455;DHT22;721;48.168;12.818;2022-10-16T08:11:37;17.20;26.10
1455;DHT22;721;48.168;12.818;2022-10-16T08:14:04;17.30;24.00
1455;DHT22;721;48.168;12.818;2022-10-16T08:16:31;17.30;25.00
1455;DHT22;721;48.168;12.818;2022-10-16T08:18:58;17.40;24.30
1455;DHT22;721;48.168;12.818;2022-10-16T08:21:25;17.30;24.00
1455;DHT22;721;48.168;12.818;2022-10-16T08:23:53;17.00;24.30
1455;DHT22;721;48.168;12.818;2022-10-16T08:26:21;17.20;26.40
1455;DHT22;721;48.168;12.818;2022-10-16T08:28:50;17.30;24.60
1455;DHT22;721;48.168;12.818;2022-10-16T08:31:17;17.50;24.20
1455;DHT22;721;48.168;12.818;2022-10-16T08:33:45;17.70;22.50
1455;DHT22;721;48.168;12.818;2022-10-16T08:36:13;17.60;23.70
1455;DHT22;721;48.168;12.818;2022-10-16T08:38:40;17.70;23.50
1455;DHT22;721;48.168;12.818;2022-10-16T08:41:21;17.80;24.40
1455;DHT22;721;48.168;12.818;2022-10-16T08:44:25;17.70;22.40
1455;DHT22;721;48.168;12.818;2022-10-16T08:47:02;17.70;23.40
1455;DHT22;721;48.168;12.818;2022-10-16T08:49:31;17.60;22.70
1455;DHT22;721;48.168;12.818;2022-10-16T08:51:58;17.30;23.40
1455;DHT22;721;48.168;12.818;2022-10-16T08:54:29;17.40;23.30
1455;DHT22;721;48.168;12.818;2022-10-16T08:56:56;17.60;23.00
1455;DHT22;721;48.168;12.818;2022-10-16T08:59:24;17.70;21.60
1455;DHT22;721;48.168;12.818;2022-10-16T09:01:52;17.70;20.60
1455;DHT22;721;48.168;12.818;2022-10-16T09:04:46;17.90;20.20
1455;DHT22;721;48.168;12.818;2022-10-16T09:07:21;17.80;20.30
1455;DHT22;721;48.168;12.818;2022-10-16T09:10:04;17.70;19.60
1455;DHT22;721;48.168;12.818;2022-10-16T09:12:39;17.70;17.90
1455;DHT22;721;48.168;12.818;2022-10-16T09:15:21;18.00;17.90
1455;DHT22;721;48.168;12.818;2022-10-16T09:17:56;18.20;17.10
1455;DHT22;721;48.168;12.818;2022-10-16T09:20:31;18.40;18.40
1455;DHT22;721;48.168;12.818;2022-10-16T09:23:16;18.50;17.40
1455;DHT22;721;48.168;12.818;2022-10-16T09:25:45;18.60;17.80
1455;DHT22;721;48.168;12.818;2022-10-16T09:28:17;18.60;18.00
1455;DHT22;721;48.168;12.818;2022-10-16T09:30:46;18.70;19.50
1455;DHT22;721;48.168;12.818;2022-10-16T09:33:18;18.70;18.40
1455;DHT22;721;48.168;12.818;2022-10-16T09:35:48;18.80;17.00
1455;DHT22;721;48.168;12.818;2022-10-16T09:38:25;18.90;15.70
1455;DHT22;721;48.168;12.818;2022-10-16T09:40:53;19.00;16.70
1455;DHT22;721;48.168;12.818;2022-10-16T09:43:23;19.10;16.00
1455;DHT22;721;48.168;12.818;2022-10-16T09:45:58;19.20;17.80
1455;DHT22;721;48.168;12.818;2022-10-16T09:48:28;19.30;17.50
1455;DHT22;721;48.168;12.818;2022-10-16T09:50:59;19.50;16.40
1455;DHT22;721;48.168;12.818;2022-10-16T09:53:40;19.60;15.90
1455;DHT22;721;48.168;12.818;2022-10-16T09:56:10;19.70;15.80
1455;DHT22;721;48.168;12.818;2022-10-16T09:58:42;19.80;14.80
1455;DHT22;721;48.168;12.818;2022-10-16T10:01:13;20.00;14.70
1455;DHT22;721;48.168;12.818;2022-10-16T10:03:42;20.10;14.10
1455;DHT22;721;48.168;12.818;2022-10-16T10:06:22;20.20;14.60
1455;DHT22;721;48.168;12.818;2022-10-16T10:08:54;20.30;14.70
1455;DHT22;721;48.168;12.818;2022-10-16T10:11:38;20.40;14.60
1455;DHT22;721;48.168;12.818;2022-10-16T10:14:06;20.50;14.20
1455;DHT22;721;48.168;12.818;2022-10-16T10:16:39;20.60;13.10
1455;DHT22;721;48.168;12.818;2022-10-16T10:19:14;20.70;14.30
1455;DHT22;721;48.168;12.818;2022-10-16T10:21:43;20.80;13.60
1455;DHT22;721;48.168;12.818;2022-10-16T10:24:14;20.90;12.40
1455;DHT22;721;48.168;12.818;2022-10-16T10:26:49;21.00;12.80
1455;DHT22;721;48.168;12.818;2022-10-16T10:29:34;21.10;11.10
1455;DHT22;721;48.168;12.818;2022-10-16T10:32:12;21.20;12.20
1455;DHT22;721;48.168;12.818;2022-10-16T10:34:51;21.20;12.70
1455;DHT22;721;48.168;12.818;2022-10-16T10:37:30;21.30;11.10
1455;DHT22;721;48.168;12.818;2022-10-16T10:40:04;21.50;10.50
1455;DHT22;721;48.168;12.818;2022-10-16T10:42:40;21.60;11.00
1455;DHT22;721;48.168;12.818;2022-10-16T10:45:17;21.80;11.00
1455;DHT22;721;48.168;12.818;2022-10-16T10:47:58;21.90;10.30
1455;DHT22;721;48.168;12.818;2022-10-16T10:50:32;22.00;10.50
1455;DHT22;721;48.168;12.818;2022-10-16T10:53:10;22.10;9.10
1455;DHT22;721;48.168;12.818;2022-10-16T10:55:43;22.30;9.00
1455;DHT22;721;48.168;12.818;2022-10-16T11:01:10;22.40;8.70
1455;DHT22;721;48.168;12.818;2022-10-16T11:04:01;22.60;7.80
1455;DHT22;721;48.168;12.818;2022-10-16T11:06:39;22.70;8.30
1455;DHT22;721;48.168;12.818;2022-10-16T11:09:10;22.90;6.80
1455;DHT22;721;48.168;12.818;2022-10-16T11:11:42;22.90;6.80
1455;DHT22;721;48.168;12.818;2022-10-16T11:14:15;23.10;6.60
1455;DHT22;721;48.168;12.818;2022-10-16T11:16:48;23.30;4.60
1455;DHT22;721;48.168;12.818;2022-10-16T11:19:25;23.40;5.80
1455;DHT22;721;48.168;12.818;2022-10-16T11:22:01;23.60;3.30
1455;DHT22;721;48.168;12.818;2022-10-16T11:24:37;23.90;4.70
1455;DHT22;721;48.168;12.818;2022-10-16T11:27:12;24.00;5.80
1455;DHT22;721;48.168;12.818;2022-10-16T11:29:46;24.20;4.10
1455;DHT22;721;48.168;12.818;2022-10-16T11:32:21;24.30;4.40
1455;DHT22;721;48.168;12.818;2022-10-16T11:34:53;24.50;2.80
1455;DHT22;721;48.168;12.818;2022-10-16T11:37:27;24.60;1.40
1455;DHT22;721;48.168;12.818;2022-10-16T11:40:03;24.80;1.70
1455;DHT22;721;48.168;12.818;2022-10-16T11:42:37;25.00;1.00
1455;DHT22;721;48.168;12.818;2022-10-16T11:45:23;25.00;1.00
1455;DHT22;721;48.168;12.818;2022-10-16T11:47:57;25.20;1.00
1455;DHT22;721;48.168;12.818;2022-10-16T11:50:34;25.40;1.00
1455;DHT22;721;48.168;12.818;2022-10-16T11:53:11;25.20;1.00
1455;DHT22;721;48.168;12.818;2022-10-16T11:55:45;25.30;1.00
1455;DHT22;721;48.168;12.818;2022-10-16T11:58:19;25.40;1.00
1455;DHT22;721;48.168;12.818;2022-10-16T12:01:15;25.60;1.00
1455;DHT22;721;48.168;12.818;2022-10-16T12:03:47;25.70;1.00
1455;DHT22;721;48.168;12.818;2022-10-16T12:06:29;25.90;1.00
1455;DHT22;721;48.168;12.818;2022-10-16T12:08:59;26.00;1.00
1455;DHT22;721;48.168;12.818;2022-10-16T12:11:36;26.10;1.00
1455;DHT22;721;48.168;12.818;2022-10-16T12:14:18;26.20;1.00
1455;DHT22;721;48.168;12.818;2022-10-16T12:16:56;26.40;1.00
1455;DHT22;721;48.168;12.818;2022-10-16T12:19:37;26.50;1.00
1455;DHT22;721;48.168;12.818;2022-10-16T12:22:19;26.70;1.00
1455;DHT22;721;48.168;12.818;2022-10-16T12:24:51;26.70;1.00
1455;DHT22;721;48.168;12.818;2022-10-16T12:27:25;27.00;1.00
1455;DHT22;721;48.168;12.818;2022-10-16T12:29:58;27.00;1.00
1455;DHT22;721;48.168;12.818;2022-10-16T12:32:30;27.10;1.00
1455;DHT22;721;48.168;12.818;2022-10-16T12:35:21;27.40;1.00
1455;DHT22;721;48.168;12.818;2022-10-16T12:37:51;27.50;1.00
1455;DHT22;721;48.168;12.818;2022-10-16T12:40:27;27.50;1.00
1455;DHT22;721;48.168;12.818;2022-10-16T12:42:57;27.40;1.00
1455;DHT22;721;48.168;12.818;2022-10-16T12:45:28;27.60;1.00
1455;DHT22;721;48.168;12.818;2022-10-16T12:47:57;27.80;1.00
1455;DHT22;721;48.168;12.818;2022-10-16T12:50:33;28.00;1.00
1455;DHT22;721;48.168;12.818;2022-10-16T12:53:04;28.00;1.00
1455;DHT22;721;48.168;12.818;2022-10-16T12:55:52;28.10;1.00
1455;DHT22;721;48.168;12.818;2022-10-16T12:58:49;28.20;1.00
1455;DHT22;721;48.168;12.818;2022-10-16T13:01:46;28.30;1.00
1455;DHT22;721;48.168;12.818;2022-10-16T13:07:53;28.60;1.00
1455;DHT22;721;48.168;12.818;2022-10-16T13:10:28;28.50;1.00
1455;DHT22;721;48.168;12.818;2022-10-16T13:13:13;28.60;1.00
1455;DHT22;721;48.168;12.818;2022-10-16T13:15:58;27.90;1.00
1455;DHT22;721;48.168;12.818;2022-10-16T13:18:32;27.90;1.00
1455;DHT22;721;48.168;12.818;2022-10-16T13:21:11;28.20;1.00
1455;DHT22;721;48.168;12.818;2022-10-16T13:23:48;28.30;1.00
1455;DHT22;721;48.168;12.818;2022-10-16T13:26:26;28.60;1.00
1455;DHT22;721;48.168;12.818;2022-10-16T13:28:59;28.70;1.00
1455;DHT22;721;48.168;12.818;2022-10-16T13:31:27;28.90;1.00
1455;DHT22;721;48.168;12.818;2022-10-16T13:33:57;28.70;1.00
1455;DHT22;721;48.168;12.818;2022-10-16T13:36:27;29.00;1.00
1455;DHT22;721;48.168;12.818;2022-10-16T13:39:10;29.10;1.00
1455;DHT22;721;48.168;12.818;2022-10-16T13:41:40;29.30;1.00
1455;DHT22;721;48.168;12.818;2022-10-16T13:44:14;29.30;1.00
1455;DHT22;721;48.168;12.818;2022-10-16T13:46:41;29.60;1.00
1455;DHT22;721;48.168;12.818;2022-10-16T13:49:16;29.60;1.00
1455;DHT22;721;48.168;12.818;2022-10-16T13:51:54;29.50;1.00
1455;DHT22;721;48.168;12.818;2022-10-16T13:54:22;29.40;1.00
1455;DHT22;721;48.168;12.818;2022-10-16T13:56:51;29.60;1.00
1455;DHT22;721;48.168;12.818;2022-10-16T13:59:26;29.70;1.00
1455;DHT22;721;48.168;12.818;2022-10-16T14:01:56;29.70;1.00
1455;DHT22;721;48.168;12.818;2022-10-16T14:04:26;29.80;1.00
1455;DHT22;721;48.168;12.818;2022-10-16T14:06:55;29.90;1.00
1455;DHT22;721;48.168;12.818;2022-10-16T14:09:24;30.00;1.00
1455;DHT22;721;48.168;12.818;2022-10-16T14:11:58;30.00;1.00
1455;DHT22;721;48.168;12.818;2022-10-16T14:14:29;29.90;1.00
1455;DHT22;721;48.168;12.818;2022-10-16T14:17:00;29.70;1.00
1455;DHT22;721;48.168;12.818;2022-10-16T14:19:31;29.60;1.00
1455;DHT22;721;48.168;12.818;2022-10-16T14:21:59;29.50;1.00
1455;DHT22;721;48.168;12.818;2022-10-16T14:24:32;29.50;1.00
1455;DHT22;721;48.168;12.818;2022-10-16T14:27:01;29.40;1.00
1455;DHT22;721;48.168;12.818;2022-10-16T14:29:29;29.50;1.00
1455;DHT22;721;48.168;12.818;2022-10-16T14:31:58;29.60;1.00
1455;DHT22;721;48.168;12.818;2022-10-16T14:34:28;29.60;1.00
1455;DHT22;721;48.168;12.818;2022-10-16T14:37:00;29.50;1.00
1455;DHT22;721;48.168;12.818;2022-10-16T14:39:33;29.50;1.00
1455;DHT22;721;48.168;12.818;2022-10-16T14:42:02;29.40;1.00
1455;DHT22;721;48.168;12.818;2022-10-16T14:44:33;29.40;1.00
1455;DHT22;721;48.168;12.818;2022-10-16T14:47:09;29.30;1.00
1455;DHT22;721;48.168;12.818;2022-10-16T14:49:38;29.20;1.00
1455;DHT22;721;48.168;12.818;2022-10-16T14:52:10;29.00;1.00
1455;DHT22;721;48.168;12.818;2022-10-16T14:54:38;28.80;1.00
1455;DHT22;721;48.168;12.818;2022-10-16T14:57:16;28.70;1.00
1455;DHT22;721;48.168;12.818;2022-10-16T14:59:44;28.60;1.00
1455;DHT22;721;48.168;12.818;2022-10-16T15:02:18;28.40;1.00
1455;DHT22;721;48.168;12.818;2022-10-16T15:04:48;28.30;1.00
1455;DHT22;721;48.168;12.818;2022-10-16T15:07:15;27.80;1.00
1455;DHT22;721;48.168;12.818;2022-10-16T15:09:42;27.50;1.00
1455;DHT22;721;48.168;12.818;2022-10-16T15:12:12;27.40;1.00
1455;DHT22;721;48.168;12.818;2022-10-16T15:14:39;27.10;1.00
1455;DHT22;721;48.168;12.818;2022-10-16T15:17:08;26.90;1.00
1455;DHT22;721;48.168;12.818;2022-10-16T15:19:36;26.70;1.00
1455;DHT22;721;48.168;12.818;2022-10-16T15:22:03;26.60;1.00
1455;DHT22;721;48.168;12.818;2022-10-16T15:24:30;26.30;1.00
1455;DHT22;721;48.168;12.818;2022-10-16T15:26:57;26.20;1.00
1455;DHT22;721;48.168;12.818;2022-10-16T15:29:25;26.10;1.00
1455;DHT22;721;48.168;12.818;2022-10-16T15:31:52;26.00;1.00
1455;DHT22;721;48.168;12.818;2022-10-16T15:34:21;25.80;1.00
1455;DHT22;721;48.168;12.818;2022-10-16T15:36:48;25.60;1.00
1455;DHT22;721;48.168;12.818;2022-10-16T15:39:17;25.50;1.00
1455;DHT22;721;48.168;12.818;2022-10-16T15:41:45;25.40;1.00
1455;DHT22;721;48.168;12.818;2022-10-16T15:44:20;25.20;1.00
1455;DHT22;721;48.168;12.818;2022-10-16T15:46:54;25.00;1.00
1455;DHT22;721;48.168;12.818;2022-10-16T15:49:22;24.80;1.20
1455;DHT22;721;48.168;12.818;2022-10-16T15:51:49;24.80;1.30
1455;DHT22;721;48.168;12.818;2022-10-16T15:54:18;24.70;1.60
1455;DHT22;721;48.168;12.818;2022-10-16T15:56:47;24.40;2.60
1455;DHT22;721;48.168;12.818;2022-10-16T15:59:14;24.40;2.90
1455;DHT22;721;48.168;12.818;2022-10-16T16:01:41;24.40;2.50
1455;DHT22;721;48.168;12.818;2022-10-16T16:04:10;24.30;3.50
1455;DHT22;721;48.168;12.818;2022-10-16T16:06:37;24.20;3.70
1455;DHT22;721;48.168;12.818;2022-10-16T16:09:10;24.30;3.70
1455;DHT22;721;48.168;12.818;2022-10-16T16:11:37;24.10;3.70
1455;DHT22;721;48.168;12.818;2022-10-16T16:14:04;24.00;4.50
1455;DHT22;721;48.168;12.818;2022-10-16T16:16:34;23.90;5.00
1455;DHT22;721;48.168;12.818;2022-10-16T16:19:03;23.70;5.60
1455;DHT22;721;48.168;12.818;2022-10-16T16:21:33;23.60;6.30
1455;DHT22;721;48.168;12.818;2022-10-16T16:24:00;23.50;6.40
1455;DHT22;721;48.168;12.818;2022-10-16T16:26:34;23.40;7.10
1455;DHT22;721;48.168;12.818;2022-10-16T16:29:03;23.30;7.50
1455;DHT22;721;48.168;12.818;2022-10-16T16:31:32;23.30;7.30
1455;DHT22;721;48.168;12.818;2022-10-16T16:34:00;23.30;7.70
1455;DHT22;721;48.168;12.818;2022-10-16T16:38:59;23.20;8.00
1455;DHT22;721;48.168;12.818;2022-10-16T16:41:29;23.00;9.10
1455;DHT22;721;48.168;12.818;2022-10-16T16:44:02;22.80;10.10
1455;DHT22;721;48.168;12.818;2022-10-16T16:46:31;22.70;10.70
1455;DHT22;721;48.168;12.818;2022-10-16T16:48:59;22.60;11.30